Time;durP1;ratioP1;P1;durP2;ratioP2;P2;SDS_P1;SDS_P2;PMS_P1;PMS_P2;Temp;Humidity;BMP_temperature;BMP_pressure;BME280_temperature;BME280_humidity;BME280_pressure;Samples;Min_cycle;Max_cycle;Signal;HPM_P1;HPM_P2
2021/04/09 00:03:25;;;;;;;11.38;6.00;;;2.60;99.90;;;;;;12376552;28;20137;-41
2021/04/09 00:09:27;;;;;;;9.38;6.00;;;2.70;99.90;;;;;;12376421;28;20042;-41
2021/04/09 00:15:28;;;;;;;12.73;6.38;;;2.70;99.90;;;;;;12367360;28;20046;-41
2021/04/09 00:21:29;;;;;;;12.25;6.13;;;2.80;99.90;;;;;;12365735;28;20766;-43
2021/04/09 00:27:31;;;;;;;13.60;6.50;;;2.80;99.90;;;;;;12364033;28;20046;-41
2021/04/09 00:33:32;;;;;;;12.45;6.22;;;2.80;99.90;;;;;;12370224;28;20046;-42
2021/04/09 00:39:34;;;;;;;10.32;5.82;;;2.90;99.90;;;;;;12370883;28;20126;-42
2021/04/09 00:45:36;;;;;;;11.10;6.20;;;2.90;99.90;;;;;;12369945;28;20145;-42
2021/04/09 00:51:38;;;;;;;10.68;5.72;;;2.90;99.90;;;;;;12371320;28;20081;-41
2021/04/09 00:57:42;;;;;;;10.52;5.95;;;3.00;99.90;;;;;;12371664;28;20054;-42
2021/04/09 01:03:43;;;;;;;10.57;5.60;;;3.10;99.90;;;;;;12374729;28;20104;-42
2021/04/09 01:09:44;;;;;;;11.85;5.85;;;3.20;99.90;;;;;;12365255;28;20055;-41
2021/04/09 01:15:46;;;;;;;12.95;5.70;;;3.40;99.90;;;;;;12367183;28;20144;-41
2021/04/09 01:21:52;;;;;;;12.48;6.32;;;3.50;99.90;;;;;;12367471;28;20050;-41
2021/04/09 01:28:05;;;;;;;11.27;6.03;;;3.50;99.90;;;;;;12359633;28;20060;-42
2021/04/09 01:34:08;;;;;;;9.45;5.70;;;3.60;99.90;;;;;;12362575;28;20050;-42
2021/04/09 01:40:12;;;;;;;12.13;5.70;;;3.60;99.90;;;;;;12369430;28;20049;-41
2021/04/09 01:46:14;;;;;;;15.20;6.07;;;3.60;99.90;;;;;;12368332;28;20050;-42
2021/04/09 01:52:17;;;;;;;10.95;5.82;;;3.50;99.90;;;;;;12364477;28;20058;-41
2021/04/09 01:58:19;;;;;;;12.52;7.70;;;3.50;99.90;;;;;;12368568;28;20093;-42
2021/04/09 02:04:22;;;;;;;12.00;5.72;;;3.40;99.90;;;;;;12364440;28;20042;-41
2021/04/09 02:10:25;;;;;;;14.18;6.15;;;3.40;99.90;;;;;;12370411;28;20520;-42
2021/04/09 02:16:28;;;;;;;11.07;6.28;;;3.40;99.90;;;;;;12364447;28;20052;-41
2021/04/09 02:22:30;;;;;;;12.52;6.07;;;3.20;99.90;;;;;;12361798;28;20483;-41
2021/04/09 02:28:32;;;;;;;13.85;6.03;;;3.20;99.90;;;;;;12370407;28;20627;-42
2021/04/09 02:34:34;;;;;;;11.95;6.50;;;3.20;99.90;;;;;;12369192;28;20137;-42
2021/04/09 02:40:36;;;;;;;13.10;6.05;;;3.20;99.90;;;;;;12369142;28;20073;-42
2021/04/09 02:46:51;;;;;;;11.82;6.18;;;3.20;99.90;;;;;;12362382;28;20053;-42
2021/04/09 02:52:59;;;;;;;12.25;5.70;;;3.20;99.90;;;;;;12368527;28;20046;-42
2021/04/09 02:59:01;;;;;;;11.48;6.40;;;3.20;99.90;;;;;;12374226;28;20483;-41
2021/04/09 03:05:06;;;;;;;14.00;6.20;;;3.20;99.90;;;;;;12360006;28;20085;-44
2021/04/09 03:11:07;;;;;;;;;;;3.30;99.90;;;;;;12356494;28;20046;-41
2021/04/09 03:17:13;;;;;;;8.60;5.03;;;3.40;99.90;;;;;;12364493;28;19980;-41
2021/04/09 03:23:14;;;;;;;12.73;6.00;;;3.40;99.90;;;;;;12363721;28;20047;-42
2021/04/09 03:29:16;;;;;;;13.48;5.95;;;3.40;99.90;;;;;;12358412;28;20050;-41
2021/04/09 03:35:18;;;;;;;10.65;5.82;;;3.40;99.90;;;;;;12363041;28;21005;-41
2021/04/09 03:41:19;;;;;;;10.77;5.05;;;3.40;99.90;;;;;;12365181;28;20050;-41
2021/04/09 03:47:21;;;;;;;9.98;5.57;;;3.30;99.90;;;;;;12358971;28;20225;-41
2021/04/09 03:53:22;;;;;;;11.63;5.13;;;3.40;99.90;;;;;;12365818;28;20105;-41
2021/04/09 03:59:23;;;;;;;10.45;5.50;;;3.30;99.90;;;;;;12362189;28;20131;-42
2021/04/09 04:05:25;;;;;;;12.02;5.50;;;3.40;99.90;;;;;;12358855;28;20050;-42
2021/04/09 04:11:28;;;;;;;13.30;5.47;;;3.30;99.90;;;;;;12364789;28;20127;-41
2021/04/09 04:17:30;;;;;;;9.83;5.13;;;3.40;99.90;;;;;;12360999;28;20050;-44
2021/04/09 04:23:32;;;;;;;12.63;5.10;;;3.40;99.90;;;;;;12365395;28;20042;-43
2021/04/09 04:29:33;;;;;;;13.20;5.65;;;3.40;99.90;;;;;;12367400;28;20433;-42
2021/04/09 04:35:34;;;;;;;9.38;5.43;;;3.50;99.90;;;;;;12370367;28;20050;-43
2021/04/09 04:41:36;;;;;;;11.25;5.63;;;3.50;99.90;;;;;;12367867;28;20577;-41
2021/04/09 04:47:38;;;;;;;13.88;4.97;;;3.50;99.90;;;;;;12358653;28;20624;-41
2021/04/09 04:53:39;;;;;;;11.50;5.45;;;3.60;99.90;;;;;;12367226;28;20101;-42
2021/04/09 04:59:41;;;;;;;11.43;5.55;;;3.60;99.90;;;;;;12367457;28;20050;-41
2021/04/09 05:05:42;;;;;;;10.65;5.45;;;3.60;99.90;;;;;;12370167;28;20451;-43
2021/04/09 05:11:43;;;;;;;13.07;6.03;;;3.70;99.90;;;;;;12366328;28;20053;-42
2021/04/09 05:17:45;;;;;;;12.82;5.45;;;3.80;99.90;;;;;;12370032;28;20133;-41
2021/04/09 05:23:46;;;;;;;17.27;7.15;;;3.90;99.90;;;;;;12369939;28;20474;-42
2021/04/09 05:29:48;;;;;;;13.63;5.85;;;4.00;99.90;;;;;;12370597;28;20141;-42
2021/04/09 05:35:54;;;;;;;10.52;5.57;;;4.10;99.90;;;;;;12370875;28;20108;-42
2021/04/09 05:41:55;;;;;;;11.93;5.57;;;4.10;99.90;;;;;;12377244;28;20609;-42
2021/04/09 05:48:03;;;;;;;13.68;5.95;;;4.30;99.90;;;;;;12360573;28;20081;-42
2021/04/09 05:54:04;;;;;;;14.75;6.15;;;4.40;99.90;;;;;;12372886;28;20158;-41
2021/04/09 06:00:06;;;;;;;12.77;5.82;;;4.60;99.90;;;;;;12362588;28;20052;-42
2021/04/09 06:06:08;;;;;;;10.93;5.78;;;4.70;99.90;;;;;;12366773;28;20153;-42
2021/04/09 06:12:10;;;;;;;12.45;6.13;;;4.90;99.90;;;;;;12367584;28;20042;-41
2021/04/09 06:18:11;;;;;;;12.02;5.95;;;4.90;99.90;;;;;;12361235;28;20162;-46
2021/04/09 06:24:12;;;;;;;13.88;5.50;;;5.00;99.90;;;;;;12357716;28;20578;-43
2021/04/09 06:30:15;;;;;;;12.95;5.70;;;5.20;99.90;;;;;;12355001;28;20056;-41
2021/04/09 06:36:16;;;;;;;12.68;5.78;;;5.40;99.90;;;;;;12362586;28;20111;-42
2021/04/09 06:42:19;;;;;;;15.93;6.43;;;5.60;99.90;;;;;;12360236;28;20049;-42
2021/04/09 06:48:20;;;;;;;10.13;6.07;;;5.60;99.90;;;;;;12361477;28;20579;-43
2021/04/09 06:54:24;;;;;;;12.23;6.07;;;5.70;99.90;;;;;;12361394;28;20127;-43
2021/04/09 07:00:30;;;;;;;12.82;5.57;;;5.70;99.90;;;;;;12363046;28;20085;-43
2021/04/09 07:06:32;;;;;;;12.82;6.47;;;6.00;99.90;;;;;;12364915;28;20145;-42
2021/04/09 07:12:34;;;;;;;9.63;5.97;;;6.20;99.90;;;;;;12368451;28;20141;-44
2021/04/09 07:19:04;;;;;;;12.70;6.60;;;6.30;99.90;;;;;;12365692;28;20861;-45
2021/04/09 07:25:08;;;;;;;13.75;6.13;;;6.50;99.90;;;;;;12358974;28;20046;-42
2021/04/09 07:31:09;;;;;;;11.82;6.22;;;6.80;99.90;;;;;;12360034;28;20046;-42
2021/04/09 07:37:10;;;;;;;14.20;6.90;;;7.00;99.90;;;;;;12368697;28;20046;-43
2021/04/09 07:43:16;;;;;;;12.90;6.85;;;7.30;99.90;;;;;;12359552;28;20099;-43
2021/04/09 07:49:27;;;;;;;13.88;6.10;;;7.50;99.90;;;;;;12357312;28;20137;-43
2021/04/09 07:55:30;;;;;;;14.02;6.47;;;7.60;99.90;;;;;;12362872;28;20502;-44
2021/04/09 08:01:31;;;;;;;13.30;6.90;;;7.80;99.90;;;;;;12368490;28;21029;-42
2021/04/09 08:07:36;;;;;;;12.65;6.30;;;7.80;99.90;;;;;;12363002;28;20089;-42
2021/04/09 08:13:41;;;;;;;13.93;7.18;;;7.90;99.90;;;;;;12371544;28;20053;-43
2021/04/09 08:19:52;;;;;;;10.68;6.45;;;8.20;99.90;;;;;;12368805;28;20123;-42
2021/04/09 08:25:54;;;;;;;14.95;6.68;;;8.30;99.90;;;;;;12364062;28;20056;-46
2021/04/09 08:31:57;;;;;;;11.35;6.60;;;8.60;99.90;;;;;;12372831;28;20047;-42
2021/04/09 08:37:59;;;;;;;11.60;5.80;;;8.90;99.90;;;;;;12370547;28;20050;-43
2021/04/09 08:44:00;;;;;;;11.57;5.35;;;9.40;99.90;;;;;;12370705;28;20088;-44
2021/04/09 08:50:07;;;;;;;9.13;5.78;;;9.40;99.90;;;;;;12371936;28;20054;-43
2021/04/09 08:56:11;;;;;;;8.35;5.15;;;9.40;99.90;;;;;;12372033;28;20100;-43
2021/04/09 09:02:27;;;;;;;10.70;5.65;;;9.80;99.90;;;;;;12370498;28;20133;-43
2021/04/09 09:08:51;;;;;;;9.95;4.75;;;10.10;99.90;;;;;;12374883;28;20046;-42
2021/04/09 09:14:53;;;;;;;;;;;9.80;99.90;;;;;;12365647;28;20061;-43
2021/04/09 09:21:16;;;;;;;9.88;4.93;;;10.30;99.90;;;;;;12358980;28;20618;-45
2021/04/09 09:27:17;;;;;;;11.40;5.00;;;10.10;99.90;;;;;;12365492;28;20380;-43
2021/04/09 09:33:19;;;;;;;8.20;4.82;;;10.00;99.90;;;;;;12369476;28;20050;-43
2021/04/09 09:39:52;;;;;;;9.07;4.38;;;10.30;99.90;;;;;;12366597;28;20116;-43
2021/04/09 09:45:53;;;;;;;11.45;5.22;;;10.80;99.90;;;;;;12358216;28;20653;-42
2021/04/09 09:51:55;;;;;;;9.05;4.18;;;11.00;99.90;;;;;;12366918;28;20625;-42
2021/04/09 09:58:12;;;;;;;8.15;4.10;;;11.10;99.90;;;;;;12367119;28;20054;-44
2021/04/09 10:04:14;;;;;;;8.65;4.50;;;10.60;99.90;;;;;;12372314;28;20172;-42
2021/04/09 10:10:16;;;;;;;8.50;4.50;;;10.50;99.90;;;;;;12368001;28;20139;-43
2021/04/09 10:16:23;;;;;;;8.18;4.57;;;10.60;99.90;;;;;;12371302;28;20058;-42
2021/04/09 10:22:24;;;;;;;8.20;4.55;;;11.30;99.90;;;;;;12360950;28;20096;-43
2021/04/09 10:28:26;;;;;;;7.80;4.32;;;11.20;99.90;;;;;;12367826;28;20046;-44
2021/04/09 10:34:33;;;;;;;7.68;4.53;;;11.40;99.90;;;;;;12361570;28;20054;-42
2021/04/09 10:40:54;;;;;;;7.38;4.07;;;11.30;99.90;;;;;;12362945;28;20050;-43
2021/04/09 10:46:58;;;;;;;12.18;4.32;;;11.60;99.90;;;;;;12365524;28;20120;-42
2021/04/09 10:53:00;;;;;;;5.80;3.30;;;12.00;99.90;;;;;;12362425;28;20046;-42
2021/04/09 10:59:07;;;;;;;6.85;3.40;;;12.20;99.90;;;;;;12361230;28;20050;-43
2021/04/09 11:05:09;;;;;;;5.88;3.45;;;12.00;99.90;;;;;;12352373;28;20540;-42
2021/04/09 11:11:15;;;;;;;6.40;3.47;;;12.20;99.90;;;;;;12362091;28;20054;-43
2021/04/09 11:17:24;;;;;;;6.03;3.50;;;11.70;99.90;;;;;;12366856;28;20169;-42
2021/04/09 11:23:38;;;;;;;5.93;3.22;;;11.40;99.90;;;;;;12367385;28;20049;-43
2021/04/09 11:29:39;;;;;;;7.07;3.45;;;11.70;99.90;;;;;;12360994;28;20133;-42
2021/04/09 11:35:40;;;;;;;4.53;2.95;;;12.20;99.90;;;;;;12362892;28;20050;-42
2021/04/09 11:41:46;;;;;;;7.32;3.95;;;12.20;99.90;;;;;;12357734;28;20530;-44
2021/04/09 11:47:47;;;;;;;6.95;3.47;;;12.40;99.90;;;;;;12364714;28;20054;-42
2021/04/09 11:54:06;;;;;;;5.35;2.80;;;11.90;99.90;;;;;;12360024;28;20106;-42
2021/04/09 12:00:17;;;;;;;5.40;3.03;;;12.20;99.90;;;;;;12363173;28;20148;-43
2021/04/09 12:06:19;;;;;;;5.78;2.45;;;12.40;99.90;;;;;;12362983;28;20427;-43
2021/04/09 12:12:21;;;;;;;5.50;2.97;;;12.40;99.90;;;;;;12359075;28;20142;-42
2021/04/09 12:18:23;;;;;;;6.63;3.58;;;12.30;99.90;;;;;;12355884;28;20517;-43
2021/04/09 12:24:24;;;;;;;6.03;3.25;;;12.20;99.90;;;;;;12363405;28;20046;-43
2021/04/09 12:30:26;;;;;;;4.50;2.78;;;12.40;99.90;;;;;;12358438;28;20038;-42
2021/04/09 12:36:28;;;;;;;9.27;2.60;;;11.90;99.90;;;;;;12362663;28;20049;-44
2021/04/09 12:42:29;;;;;;;3.08;2.00;;;11.90;99.90;;;;;;12361746;28;20473;-44
2021/04/09 12:48:30;;;;;;;3.65;1.90;;;12.20;99.90;;;;;;12362597;28;20104;-42
2021/04/09 12:54:32;;;;;;;4.18;2.28;;;12.80;99.90;;;;;;12374825;28;20048;-42
2021/04/09 13:00:33;;;;;;;4.53;2.33;;;12.90;99.90;;;;;;12372683;28;20073;-42
2021/04/09 13:06:35;;;;;;;4.50;2.53;;;12.90;99.90;;;;;;12368547;28;20073;-43
2021/04/09 13:12:36;;;;;;;3.67;2.05;;;13.00;99.90;;;;;;12375962;28;20616;-42
2021/04/09 13:18:37;;;;;;;7.85;2.90;;;13.20;99.90;;;;;;12363159;28;20054;-44
2021/04/09 13:24:39;;;;;;;6.65;2.42;;;13.20;99.90;;;;;;12373155;28;20042;-43
2021/04/09 13:30:42;;;;;;;4.47;2.65;;;13.30;99.90;;;;;;12366412;28;20116;-42
2021/04/09 13:36:43;;;;;;;5.13;2.45;;;13.40;99.90;;;;;;12369850;28;20054;-42
2021/04/09 13:42:44;;;;;;;7.22;3.08;;;12.80;99.90;;;;;;12360083;28;20046;-42
2021/04/09 13:48:46;;;;;;;7.82;3.08;;;12.90;99.90;;;;;;12368661;28;20117;-42
2021/04/09 13:54:47;;;;;;;6.30;3.33;;;12.80;99.90;;;;;;12370994;28;20080;-42
2021/04/09 14:00:48;;;;;;;8.38;4.18;;;12.70;99.90;;;;;;12377791;28;20054;-43
2021/04/09 14:06:51;;;;;;;7.90;4.63;;;12.60;99.90;;;;;;12365613;28;20058;-43
2021/04/09 14:12:54;;;;;;;7.72;3.92;;;12.40;99.90;;;;;;12369907;28;20046;-44
2021/04/09 14:18:55;;;;;;;6.82;3.95;;;12.60;99.90;;;;;;12361925;28;20058;-42
2021/04/09 14:24:57;;;;;;;10.05;4.35;;;12.70;99.90;;;;;;12365134;28;20054;-42
2021/04/09 14:30:59;;;;;;;6.18;3.85;;;13.00;99.90;;;;;;12362047;28;20635;-42
2021/04/09 14:37:01;;;;;;;6.10;4.07;;;12.40;99.90;;;;;;12370226;28;20077;-42
2021/04/09 14:43:02;;;;;;;9.75;4.30;;;12.00;99.90;;;;;;12363610;28;20070;-42
2021/04/09 14:49:03;;;;;;;6.80;4.03;;;12.10;99.90;;;;;;12359448;28;20113;-43
2021/04/09 14:55:06;;;;;;;10.55;3.88;;;12.00;99.90;;;;;;12359916;28;21270;-42
2021/04/09 15:01:07;;;;;;;5.88;4.18;;;11.90;99.90;;;;;;12364407;28;20050;-43
2021/04/09 15:07:08;;;;;;;5.88;4.28;;;11.70;99.90;;;;;;12369333;28;20100;-45
2021/04/09 15:13:10;;;;;;;8.48;5.40;;;11.90;99.90;;;;;;12366629;28;20936;-44
2021/04/09 15:19:11;;;;;;;10.35;5.65;;;11.70;99.90;;;;;;12363112;28;21285;-42
2021/04/09 15:25:13;;;;;;;8.13;5.00;;;11.80;99.90;;;;;;12353701;28;20084;-42
2021/04/09 15:31:15;;;;;;;8.00;4.40;;;11.50;99.90;;;;;;12356271;28;20054;-43
2021/04/09 15:37:16;;;;;;;9.18;4.55;;;11.20;99.90;;;;;;12358213;28;20061;-44
2021/04/09 15:43:19;;;;;;;11.57;4.72;;;11.10;99.90;;;;;;12358917;28;20083;-43
2021/04/09 15:49:20;;;;;;;7.13;4.97;;;11.50;99.90;;;;;;12361326;28;20050;-44
2021/04/09 15:55:22;;;;;;;8.13;5.35;;;11.70;99.90;;;;;;12355669;28;20084;-43
2021/04/09 16:01:26;;;;;;;9.30;5.35;;;11.70;99.90;;;;;;12357090;28;20046;-43
2021/04/09 16:07:27;;;;;;;7.85;4.75;;;11.50;99.90;;;;;;12368235;28;20573;-43
2021/04/09 16:13:28;;;;;;;8.27;5.53;;;11.20;99.90;;;;;;12362286;28;20050;-42
2021/04/09 16:19:30;;;;;;;8.02;5.20;;;11.10;99.90;;;;;;12361154;28;20113;-43
2021/04/09 16:25:31;;;;;;;8.82;5.45;;;11.60;99.90;;;;;;12364572;28;21385;-42
2021/04/09 16:31:34;;;;;;;8.85;5.32;;;12.30;99.90;;;;;;12361351;28;20498;-43
2021/04/09 16:37:36;;;;;;;11.00;5.90;;;11.60;99.90;;;;;;12369963;28;20092;-42
2021/04/09 16:43:38;;;;;;;7.38;4.95;;;11.50;99.90;;;;;;12372100;28;22020;-43
2021/04/09 16:49:39;;;;;;;8.15;4.60;;;11.30;99.90;;;;;;12371591;28;20828;-42
2021/04/09 16:55:41;;;;;;;11.00;5.55;;;11.40;99.90;;;;;;12370836;28;20105;-43
2021/04/09 17:01:42;;;;;;;6.90;4.70;;;11.10;99.90;;;;;;12364940;28;20142;-42
2021/04/09 17:07:44;;;;;;;7.43;4.68;;;10.80;99.90;;;;;;12358026;28;20186;-44
2021/04/09 17:13:45;;;;;;;7.70;4.93;;;10.70;99.90;;;;;;12365427;28;20133;-43
2021/04/09 17:19:46;;;;;;;8.65;5.07;;;10.60;99.90;;;;;;12362188;28;20477;-42
2021/04/09 17:25:48;;;;;;;9.02;5.22;;;10.60;99.90;;;;;;12356835;28;21030;-42
2021/04/09 17:31:50;;;;;;;10.15;4.82;;;10.70;99.90;;;;;;12365518;28;20437;-44
2021/04/09 17:37:51;;;;;;;7.72;4.43;;;10.50;99.90;;;;;;12347313;28;20150;-42
2021/04/09 17:43:53;;;;;;;9.60;5.00;;;10.30;99.90;;;;;;12359326;28;20105;-42
2021/04/09 17:49:55;;;;;;;9.88;5.13;;;9.90;99.90;;;;;;12355206;28;20062;-42
2021/04/09 17:55:56;;;;;;;11.25;4.97;;;9.60;99.90;;;;;;12364768;28;20069;-42
2021/04/09 18:01:57;;;;;;;11.18;4.93;;;9.30;99.90;;;;;;12359651;28;20109;-42
2021/04/09 18:07:59;;;;;;;8.40;5.35;;;9.20;99.90;;;;;;12357834;28;20051;-42
2021/04/09 18:14:00;;;;;;;9.20;5.28;;;9.00;99.90;;;;;;12365411;28;20053;-43
2021/04/09 18:20:03;;;;;;;8.07;5.60;;;8.80;99.90;;;;;;12358303;28;20112;-42
2021/04/09 18:26:05;;;;;;;7.43;4.65;;;8.80;99.90;;;;;;12360154;28;20069;-43
2021/04/09 18:32:07;;;;;;;8.45;5.15;;;8.70;99.90;;;;;;12363373;28;20056;-42
2021/04/09 18:38:09;;;;;;;7.60;4.72;;;8.60;99.90;;;;;;12363200;28;20683;-43
2021/04/09 18:44:10;;;;;;;6.30;3.83;;;8.40;99.90;;;;;;12357444;28;20054;-43
2021/04/09 18:50:12;;;;;;;8.57;4.00;;;8.20;99.90;;;;;;12358422;28;20047;-42
2021/04/09 18:56:14;;;;;;;6.07;4.22;;;7.90;99.90;;;;;;12368302;28;20125;-42
2021/04/09 19:02:16;;;;;;;8.02;4.65;;;7.70;99.90;;;;;;12368503;28;20053;-42
2021/04/09 19:08:18;;;;;;;7.65;4.60;;;7.70;99.90;;;;;;12360004;28;20533;-42
2021/04/09 19:14:20;;;;;;;7.00;3.90;;;7.70;99.90;;;;;;12370835;28;20542;-42
2021/04/09 19:20:21;;;;;;;6.70;4.15;;;7.70;99.90;;;;;;12359722;28;20179;-42
2021/04/09 19:26:22;;;;;;;5.93;4.00;;;7.80;99.90;;;;;;12362549;28;20060;-43
2021/04/09 19:32:24;;;;;;;5.97;3.42;;;7.90;99.90;;;;;;12363144;28;20101;-42
2021/04/09 19:38:25;;;;;;;6.57;3.40;;;8.10;99.90;;;;;;12358494;28;20085;-42
2021/04/09 19:44:27;;;;;;;6.03;3.50;;;8.10;99.90;;;;;;12360302;28;20091;-42
2021/04/09 19:50:28;;;;;;;7.75;4.20;;;8.20;99.90;;;;;;12360266;28;20054;-43
2021/04/09 19:56:30;;;;;;;8.30;5.30;;;8.20;99.90;;;;;;12361383;28;20057;-42
2021/04/09 20:02:31;;;;;;;8.98;5.70;;;8.60;99.90;;;;;;12368090;28;20487;-43
2021/04/09 20:08:33;;;;;;;11.30;6.65;;;8.50;99.90;;;;;;12374851;28;20077;-42
2021/04/09 20:14:34;;;;;;;8.70;5.82;;;8.60;99.90;;;;;;12370887;28;20333;-42
2021/04/09 20:20:37;;;;;;;12.00;6.20;;;8.40;99.90;;;;;;12372764;28;20880;-43
2021/04/09 20:26:38;;;;;;;14.40;6.57;;;8.50;99.90;;;;;;12374143;28;20054;-42
2021/04/09 20:32:40;;;;;;;12.95;6.85;;;8.20;99.90;;;;;;12371420;28;20526;-43
2021/04/09 20:38:42;;;;;;;8.48;5.70;;;8.00;99.90;;;;;;12371452;28;20136;-42
2021/04/09 20:44:43;;;;;;;9.75;6.13;;;7.80;99.90;;;;;;12369551;28;22029;-43
2021/04/09 20:50:45;;;;;;;9.02;6.13;;;7.80;99.90;;;;;;12373861;28;20053;-43
2021/04/09 20:56:46;;;;;;;7.82;6.35;;;7.80;99.90;;;;;;12376224;28;20185;-42
2021/04/09 21:02:47;;;;;;;13.23;5.85;;;7.70;99.90;;;;;;12370684;28;20062;-42
2021/04/09 21:08:49;;;;;;;11.93;6.22;;;7.70;99.90;;;;;;12375069;28;20501;-42
2021/04/09 21:14:50;;;;;;;8.55;5.93;;;7.40;99.90;;;;;;12372229;28;20560;-42
2021/04/09 21:20:52;;;;;;;8.20;5.43;;;7.40;99.90;;;;;;12374932;28;20125;-42
2021/04/09 21:26:53;;;;;;;10.73;6.75;;;7.30;99.90;;;;;;12365132;28;20521;-44
2021/04/09 21:32:54;;;;;;;10.57;6.45;;;7.00;99.90;;;;;;12368461;28;20050;-42
2021/04/09 21:38:56;;;;;;;16.67;7.10;;;6.80;99.90;;;;;;12366438;28;20779;-42
2021/04/09 21:44:57;;;;;;;17.48;7.18;;;6.70;99.90;;;;;;12372470;28;20058;-42
2021/04/09 21:50:59;;;;;;;11.10;7.05;;;6.60;99.90;;;;;;12362877;28;20066;-43
2021/04/09 21:57:00;;;;;;;13.93;7.13;;;6.50;99.90;;;;;;12365366;28;20058;-43
2021/04/09 22:03:03;;;;;;;14.75;7.45;;;6.40;99.90;;;;;;12364888;28;20064;-42
2021/04/09 22:09:06;;;;;;;12.40;7.55;;;6.30;99.90;;;;;;12360140;28;20449;-42
2021/04/09 22:15:08;;;;;;;14.02;7.53;;;6.40;99.90;;;;;;12363397;28;20068;-42
2021/04/09 22:21:10;;;;;;;15.70;7.97;;;6.50;99.90;;;;;;12365777;28;20104;-42
2021/04/09 22:27:11;;;;;;;14.23;8.57;;;6.80;99.90;;;;;;12367983;28;20049;-43
2021/04/09 22:33:13;;;;;;;15.68;8.07;;;6.60;99.90;;;;;;12359183;28;20057;-44
2021/04/09 22:39:15;;;;;;;15.52;8.23;;;6.50;99.90;;;;;;12366435;28;20050;-42
2021/04/09 22:45:17;;;;;;;14.15;8.43;;;6.70;99.90;;;;;;12363648;28;20438;-42
2021/04/09 22:51:19;;;;;;;13.82;7.85;;;6.70;99.90;;;;;;12363762;28;20038;-42
2021/04/09 22:57:20;;;;;;;11.98;8.35;;;6.80;99.90;;;;;;12366803;28;20062;-44
2021/04/09 23:03:21;;;;;;;17.20;8.73;;;6.70;99.90;;;;;;12367462;28;20119;-44
2021/04/09 23:09:23;;;;;;;13.85;8.73;;;6.50;99.90;;;;;;12369173;28;20143;-43
2021/04/09 23:15:24;;;;;;;18.27;10.45;;;6.50;99.90;;;;;;12364637;28;20168;-43
2021/04/09 23:21:25;;;;;;;14.02;9.15;;;6.40;99.90;;;;;;12362263;28;20049;-42
2021/04/09 23:27:27;;;;;;;16.27;9.65;;;6.40;99.90;;;;;;12362792;28;20192;-44
2021/04/09 23:33:28;;;;;;;16.58;10.90;;;6.30;99.90;;;;;;12368812;28;20092;-44
2021/04/09 23:39:30;;;;;;;19.15;10.77;;;6.30;99.90;;;;;;12359383;28;20417;-42
2021/04/09 23:45:31;;;;;;;15.18;9.93;;;6.30;99.90;;;;;;12364647;28;20060;-42
2021/04/09 23:51:33;;;;;;;15.73;10.23;;;6.30;99.90;;;;;;12359982;28;20042;-42
2021/04/09 23:57:34;;;;;;;17.15;10.25;;;6.30;99.90;;;;;;12365906;28;20397;-42
